Time;durP1;ratioP1;P1;durP2;ratioP2;P2;SDS_P1;SDS_P2;PMS_P1;PMS_P2;Temp;Humidity;BMP_temperature;BMP_pressure;BME280_temperature;BME280_humidity;BME280_pressure;Samples;Min_cycle;Max_cycle;Signal;HPM_P1;HPM_P2
2022/01/31 00:00:10;;;;;;;;;;;;;;;-15.31;83.58;100263.72;5072130;28;20296;-62
2022/01/31 00:02:37;;;;;;;;;;;;;;;-15.26;83.66;100252.28;5072471;28;19925;-62
2022/01/31 00:05:04;;;;;;;;;;;;;;;-15.25;82.91;100250.66;5072336;28;19924;-61
2022/01/31 00:07:30;;;;;;;;;;;;;;;-15.42;83.79;100250.78;5072320;28;19924;-62
2022/01/31 00:09:57;;;;;;;;;;;;;;;-15.27;83.51;100263.06;5072033;28;19925;-62
2022/01/31 00:12:27;;;;;;;;;;;;;;;-15.25;82.73;100260.63;5072081;28;20030;-62
2022/01/31 00:15:01;;;;;;;;;;;;;;;-15.23;83.82;100259.03;5072165;28;20439;-62
2022/01/31 00:17:28;;;;;;;;;;;;;;;-15.21;82.57;100260.78;5072002;28;19973;-62
2022/01/31 00:19:54;;;;;;;;;;;;;;;-15.32;83.70;100269.50;5072329;28;20305;-62
2022/01/31 00:22:21;;;;;;;;;;;;;;;-15.23;83.12;100262.41;5072602;28;19932;-62
2022/01/31 00:24:49;;;;;;;;;;;;;;;-15.38;83.62;100255.13;5075842;28;19924;-61
2022/01/31 00:27:15;;;;;;;;;;;;;;;-15.19;83.27;100250.88;5075744;28;20328;-62
2022/01/31 00:29:42;;;;;;;;;;;;;;;-15.23;83.01;100257.41;5076278;28;19948;-62
2022/01/31 00:32:10;;;;;;;;;;;;;;;-15.10;83.76;100253.75;5075898;28;19924;-61
2022/01/31 00:34:36;;;;;;;;;;;;;;;-15.02;83.62;100257.41;5075976;28;19928;-61
2022/01/31 00:37:03;;;;;;;;;;;;;;;-14.96;83.33;100260.13;5075973;28;19924;-62
2022/01/31 00:39:33;;;;;;;;;;;;;;;-14.98;83.01;100266.72;5075527;28;19928;-62
2022/01/31 00:42:02;;;;;;;;;;;;;;;-14.97;83.06;100267.59;5075783;28;19964;-62
2022/01/31 00:44:38;;;;;;;;;;;;;;;-14.93;82.89;100276.88;5075805;28;19924;-62
2022/01/31 00:47:15;;;;;;;;;;;;;;;-14.97;83.60;100287.56;5075785;28;20371;-62
2022/01/31 00:49:49;;;;;;;;;;;;;;;-14.90;83.59;100296.13;5075947;28;19924;-61
2022/01/31 00:52:16;;;;;;;;;;;;;;;-14.97;83.31;100292.56;5075189;28;19925;-62
2022/01/31 00:54:43;;;;;;;;;;;;;;;-14.89;83.48;100295.34;5075533;28;20405;-61
2022/01/31 00:57:09;;;;;;;;;;;;;;;-14.86;83.36;100293.81;5075591;28;19924;-62
2022/01/31 00:59:36;;;;;;;;;;;;;;;-14.80;83.52;100296.53;5075724;28;19931;-62
2022/01/31 01:02:03;;;;;;;;;;;;;;;-14.84;83.79;100291.41;5075502;28;19924;-62
2022/01/31 01:04:29;;;;;;;;;;;;;;;-14.80;83.02;100298.19;5075174;28;19925;-61
2022/01/31 01:06:57;;;;;;;;;;;;;;;-14.80;83.78;100299.03;5075123;28;19924;-60
2022/01/31 01:09:24;;;;;;;;;;;;;;;-14.81;82.92;100294.84;5075088;28;20379;-60
2022/01/31 01:11:50;;;;;;;;;;;;;;;-14.86;82.45;100298.81;5075166;28;19924;-62
2022/01/31 01:14:17;;;;;;;;;;;;;;;-14.83;82.71;100303.91;5074886;28;19931;-61
2022/01/31 01:16:43;;;;;;;;;;;;;;;-14.86;82.63;100303.81;5074975;28;19924;-62
2022/01/31 01:19:10;;;;;;;;;;;;;;;-14.97;81.98;100305.03;5075066;28;19924;-61
2022/01/31 01:21:37;;;;;;;;;;;;;;;-15.06;82.80;100312.13;5075455;28;19935;-61
2022/01/31 01:24:05;;;;;;;;;;;;;;;-15.17;82.77;100310.06;5075353;28;19924;-62
2022/01/31 01:26:32;;;;;;;;;;;;;;;-15.29;82.83;100306.19;5074937;28;19925;-62
2022/01/31 01:28:59;;;;;;;;;;;;;;;-15.44;83.65;100313.88;5074859;28;19929;-62
2022/01/31 01:31:26;;;;;;;;;;;;;;;-15.37;82.92;100306.72;5074669;28;19924;-62
2022/01/31 01:33:53;;;;;;;;;;;;;;;-15.38;82.42;100311.69;5074383;28;20375;-62
2022/01/31 01:36:20;;;;;;;;;;;;;;;-15.61;83.52;100321.53;5073964;28;19924;-61
2022/01/31 01:38:47;;;;;;;;;;;;;;;-15.78;84.33;100324.94;5074377;28;19952;-61
2022/01/31 01:41:15;;;;;;;;;;;;;;;-15.84;83.92;100330.53;5074596;28;19925;-62
2022/01/31 01:43:42;;;;;;;;;;;;;;;-15.87;84.62;100334.53;5074388;28;19925;-61
2022/01/31 01:46:08;;;;;;;;;;;;;;;-15.83;82.83;100334.72;5074517;28;19925;-61
2022/01/31 01:48:35;;;;;;;;;;;;;;;-15.81;83.64;100334.78;5074654;28;19924;-62
2022/01/31 01:51:02;;;;;;;;;;;;;;;-15.97;83.64;100335.75;5074506;28;20334;-61
2022/01/31 01:53:29;;;;;;;;;;;;;;;-16.10;82.86;100336.00;5074198;28;20019;-62
2022/01/31 01:55:55;;;;;;;;;;;;;;;-16.17;83.42;100349.81;5074379;28;19924;-61
2022/01/31 01:58:24;;;;;;;;;;;;;;;-16.25;84.09;100341.97;5074245;28;19964;-62
2022/01/31 02:00:58;;;;;;;;;;;;;;;-16.26;83.48;100341.91;5074207;28;19924;-62
2022/01/31 02:03:26;;;;;;;;;;;;;;;-16.52;83.97;100341.53;5074415;28;19930;-62
2022/01/31 02:05:52;;;;;;;;;;;;;;;-16.49;85.07;100341.72;5074046;28;20272;-61
2022/01/31 02:08:19;;;;;;;;;;;;;;;-16.46;84.57;100336.03;5074084;28;20374;-63
2022/01/31 02:10:46;;;;;;;;;;;;;;;-16.43;84.53;100338.66;5073999;28;20263;-62
2022/01/31 02:13:15;;;;;;;;;;;;;;;-16.56;83.56;100337.22;5073614;28;19924;-61
2022/01/31 02:15:44;;;;;;;;;;;;;;;-16.52;83.24;100336.56;5074356;28;19924;-61
2022/01/31 02:18:11;;;;;;;;;;;;;;;-16.64;84.46;100341.00;5074568;28;19928;-61
2022/01/31 02:20:39;;;;;;;;;;;;;;;-16.84;84.67;100340.06;5074039;28;19935;-61
2022/01/31 02:23:06;;;;;;;;;;;;;;;-16.80;84.55;100341.91;5073677;28;19931;-61
2022/01/31 02:25:33;;;;;;;;;;;;;;;-16.84;84.24;100344.22;5073478;28;19928;-62
2022/01/31 02:28:00;;;;;;;;;;;;;;;-16.91;84.62;100348.03;5073420;28;19931;-61
2022/01/31 02:30:26;;;;;;;;;;;;;;;-17.32;85.08;100356.78;5073356;28;20268;-61
2022/01/31 02:32:53;;;;;;;;;;;;;;;-17.14;84.80;100352.72;5073711;28;19947;-61
2022/01/31 02:35:19;;;;;;;;;;;;;;;-17.12;86.09;100356.16;5073521;28;19939;-61
2022/01/31 02:37:47;;;;;;;;;;;;;;;-17.09;85.37;100365.41;5073536;28;19924;-61
2022/01/31 02:40:14;;;;;;;;;;;;;;;-17.19;84.71;100369.06;5073893;28;20014;-60
2022/01/31 02:42:40;;;;;;;;;;;;;;;-17.02;84.80;100369.91;5073634;28;19925;-62
2022/01/31 02:45:08;;;;;;;;;;;;;;;-17.15;84.43;100368.44;5073188;28;20367;-61
2022/01/31 02:47:39;;;;;;;;;;;;;;;-17.25;85.85;100366.28;5073188;28;19932;-63
2022/01/31 02:50:08;;;;;;;;;;;;;;;-17.09;84.79;100360.41;5073175;28;19935;-62
2022/01/31 02:52:36;;;;;;;;;;;;;;;-17.06;85.27;100373.00;5073091;28;19932;-61
2022/01/31 02:55:05;;;;;;;;;;;;;;;-17.10;85.21;100380.25;5072874;28;19924;-61
2022/01/31 02:57:32;;;;;;;;;;;;;;;-17.28;84.85;100385.19;5073367;28;19924;-63
2022/01/31 02:59:59;;;;;;;;;;;;;;;-17.16;84.71;100381.66;5073158;28;19942;-63
2022/01/31 03:02:25;;;;;;;;;;;;;;;-17.30;83.75;100381.75;5072910;28;19924;-63
2022/01/31 03:04:52;;;;;;;;;;;;;;;-17.23;83.34;100379.66;5072949;28;19925;-62
2022/01/31 03:07:18;;;;;;;;;;;;;;;-17.27;84.01;100379.41;5072974;28;20310;-62
2022/01/31 03:09:45;;;;;;;;;;;;;;;-17.45;84.19;100389.28;5072974;28;19948;-62
2022/01/31 03:12:13;;;;;;;;;;;;;;;-17.53;84.91;100383.91;5073502;28;19932;-62
2022/01/31 03:14:42;;;;;;;;;;;;;;;-17.72;85.57;100378.75;5072994;28;19924;-63
2022/01/31 03:17:10;;;;;;;;;;;;;;;-17.87;86.47;100382.19;5072104;28;20151;-63
2022/01/31 03:19:40;;;;;;;;;;;;;;;-17.59;84.66;100373.66;5073178;28;19929;-63
2022/01/31 03:22:06;;;;;;;;;;;;;;;-17.68;84.74;100370.69;5072853;28;19935;-62
2022/01/31 03:24:33;;;;;;;;;;;;;;;-17.61;84.39;100378.56;5072621;28;20019;-62
2022/01/31 03:26:59;;;;;;;;;;;;;;;-17.49;84.11;100377.47;5072722;28;19971;-62
2022/01/31 03:29:28;;;;;;;;;;;;;;;-17.59;84.15;100371.19;5072493;28;20375;-62
2022/01/31 03:31:55;;;;;;;;;;;;;;;-17.66;85.18;100377.47;5072770;28;19924;-63
2022/01/31 03:34:22;;;;;;;;;;;;;;;-17.62;84.36;100379.34;5072592;28;19947;-62
2022/01/31 03:36:48;;;;;;;;;;;;;;;-17.69;84.52;100382.28;5072525;28;19928;-60
2022/01/31 03:39:15;;;;;;;;;;;;;;;-17.53;83.83;100381.44;5072967;28;19925;-62
2022/01/31 03:41:41;;;;;;;;;;;;;;;-17.71;85.39;100385.47;5072465;28;19931;-61
2022/01/31 03:44:08;;;;;;;;;;;;;;;-17.70;84.91;100384.66;5072516;28;19940;-63
2022/01/31 03:46:38;;;;;;;;;;;;;;;-17.62;84.71;100380.94;5072392;28;19932;-62
2022/01/31 03:49:05;;;;;;;;;;;;;;;-17.41;84.26;100386.19;5072156;28;19928;-62
2022/01/31 03:51:31;;;;;;;;;;;;;;;-17.32;82.61;100391.59;5072321;28;20363;-63
2022/01/31 03:53:58;;;;;;;;;;;;;;;-17.39;83.22;100395.44;5072287;28;19925;-63
2022/01/31 03:56:24;;;;;;;;;;;;;;;-17.56;83.10;100387.09;5072464;28;19924;-63
2022/01/31 03:58:51;;;;;;;;;;;;;;;-17.62;83.38;100400.81;5074655;28;19946;-62
2022/01/31 04:01:18;;;;;;;;;;;;;;;-17.69;83.10;100403.78;5076689;28;19943;-62
2022/01/31 04:03:46;;;;;;;;;;;;;;;-17.46;83.42;100402.50;5076420;28;19925;-62
2022/01/31 04:06:12;;;;;;;;;;;;;;;-17.53;83.62;100398.84;5076184;28;19940;-62
2022/01/31 04:08:39;;;;;;;;;;;;;;;-17.59;84.69;100401.88;5076215;28;19925;-63
2022/01/31 04:11:05;;;;;;;;;;;;;;;-17.63;84.11;100404.09;5076193;28;19932;-62
2022/01/31 04:13:32;;;;;;;;;;;;;;;-17.54;85.47;100406.19;5076107;28;19931;-62
2022/01/31 04:15:58;;;;;;;;;;;;;;;-17.55;83.91;100407.84;5076122;28;20400;-63
2022/01/31 04:18:25;;;;;;;;;;;;;;;-17.45;83.70;100409.16;5076281;28;19947;-63
2022/01/31 04:20:53;;;;;;;;;;;;;;;-17.52;83.44;100412.97;5076159;28;19948;-63
2022/01/31 04:23:21;;;;;;;;;;;;;;;-17.40;82.87;100411.13;5076342;28;20295;-62
2022/01/31 04:25:53;;;;;;;;;;;;;;;-17.64;83.98;100415.69;5076193;28;20397;-62
2022/01/31 04:28:23;;;;;;;;;;;;;;;-17.48;84.13;100416.47;5076117;28;20381;-61
2022/01/31 04:30:55;;;;;;;;;;;;;;;-17.51;83.60;100416.31;5076137;28;19935;-62
2022/01/31 04:33:23;;;;;;;;;;;;;;;-17.49;83.78;100429.66;5076453;28;19929;-62
2022/01/31 04:35:50;;;;;;;;;;;;;;;-17.45;83.58;100434.88;5075858;28;19940;-62
2022/01/31 04:38:18;;;;;;;;;;;;;;;-17.54;83.43;100423.59;5075986;28;19947;-63
2022/01/31 04:40:45;;;;;;;;;;;;;;;-17.50;84.45;100425.47;5075618;28;19965;-63
2022/01/31 04:43:11;;;;;;;;;;;;;;;-17.52;83.75;100424.53;5075604;28;19974;-63
2022/01/31 04:45:38;;;;;;;;;;;;;;;-17.52;84.27;100427.88;5075532;28;19924;-62
2022/01/31 04:48:05;;;;;;;;;;;;;;;-17.49;83.10;100428.06;5075625;28;19925;-65
2022/01/31 04:50:31;;;;;;;;;;;;;;;-17.50;84.00;100437.91;5075525;28;19935;-63
2022/01/31 04:52:58;;;;;;;;;;;;;;;-17.51;84.77;100442.03;5075392;28;19924;-63
2022/01/31 04:55:26;;;;;;;;;;;;;;;-17.49;84.36;100449.56;5075492;28;19925;-66
2022/01/31 04:57:52;;;;;;;;;;;;;;;-17.41;84.26;100450.84;5075352;28;19925;-61
2022/01/31 05:00:19;;;;;;;;;;;;;;;-17.41;84.60;100446.72;5075555;28;19931;-62
2022/01/31 05:02:46;;;;;;;;;;;;;;;-17.46;83.87;100450.59;5075282;28;19931;-63
2022/01/31 05:05:12;;;;;;;;;;;;;;;-17.41;83.47;100453.31;5075539;28;20445;-61
2022/01/31 05:07:39;;;;;;;;;;;;;;;-17.32;83.46;100455.41;5075312;28;19932;-62
2022/01/31 05:10:06;;;;;;;;;;;;;;;-17.39;82.95;100460.09;5073766;28;19931;-62
2022/01/31 05:12:34;;;;;;;;;;;;;;;-17.41;83.87;100458.31;5075156;28;19924;-62
2022/01/31 05:15:00;;;;;;;;;;;;;;;-17.35;83.88;100456.97;5075172;28;19925;-62
2022/01/31 05:17:27;;;;;;;;;;;;;;;-17.26;83.04;100469.03;5074989;28;19939;-63
2022/01/31 05:19:54;;;;;;;;;;;;;;;-17.40;84.70;100462.47;5075392;28;19940;-61
2022/01/31 05:22:20;;;;;;;;;;;;;;;-17.46;84.17;100460.53;5075395;28;19925;-62
2022/01/31 05:24:47;;;;;;;;;;;;;;;-17.48;84.82;100453.78;5074870;28;19925;-61
2022/01/31 05:27:14;;;;;;;;;;;;;;;-17.32;83.83;100450.44;5074880;28;20026;-62
2022/01/31 05:29:42;;;;;;;;;;;;;;;-17.28;84.44;100440.75;5074711;28;19925;-64
2022/01/31 05:32:09;;;;;;;;;;;;;;;-17.26;83.92;100436.72;5075014;28;19924;-64
2022/01/31 05:34:35;;;;;;;;;;;;;;;-17.43;84.76;100448.25;5074622;28;20379;-62
2022/01/31 05:37:02;;;;;;;;;;;;;;;-17.38;84.96;100451.84;5074684;28;19924;-64
2022/01/31 05:39:28;;;;;;;;;;;;;;;-17.15;84.77;100449.69;5074579;28;19924;-64
2022/01/31 05:41:56;;;;;;;;;;;;;;;-17.17;83.82;100456.22;5066377;28;19932;-62
2022/01/31 05:44:23;;;;;;;;;;;;;;;-17.19;84.90;100453.63;5074639;28;19925;-63
2022/01/31 05:46:52;;;;;;;;;;;;;;;-17.22;83.38;100460.09;5074412;28;19928;-62
2022/01/31 05:49:18;;;;;;;;;;;;;;;-17.32;84.51;100450.44;5074175;28;19924;-64
2022/01/31 05:51:49;;;;;;;;;;;;;;;-17.24;84.83;100449.22;5074325;28;19931;-64
2022/01/31 05:54:16;;;;;;;;;;;;;;;-17.33;84.48;100452.09;5074187;28;19929;-64
2022/01/31 05:56:43;;;;;;;;;;;;;;;-17.42;84.65;100452.44;5074165;28;20393;-64
2022/01/31 05:59:09;;;;;;;;;;;;;;;-17.64;84.74;100452.13;5074056;28;20294;-65
2022/01/31 06:01:38;;;;;;;;;;;;;;;-17.67;84.99;100449.44;5074155;28;19931;-63
2022/01/31 06:04:06;;;;;;;;;;;;;;;-17.63;86.34;100457.16;5074016;28;19931;-64
2022/01/31 06:06:33;;;;;;;;;;;;;;;-17.43;84.96;100459.84;5074014;28;20337;-61
2022/01/31 06:09:00;;;;;;;;;;;;;;;-17.56;84.56;100466.66;5073746;28;19925;-65
2022/01/31 06:11:26;;;;;;;;;;;;;;;-17.47;84.45;100472.88;5073863;28;20367;-65
2022/01/31 06:13:55;;;;;;;;;;;;;;;-17.42;84.52;100461.53;5074161;28;19932;-64
2022/01/31 06:16:21;;;;;;;;;;;;;;;-17.46;83.96;100465.50;5073645;28;20329;-66
2022/01/31 06:18:48;;;;;;;;;;;;;;;-17.33;82.86;100466.16;5074118;28;19936;-66
2022/01/31 06:21:16;;;;;;;;;;;;;;;-17.47;84.58;100458.81;5073382;28;20279;-66
2022/01/31 06:23:43;;;;;;;;;;;;;;;-17.40;83.55;100460.84;5073867;28;19932;-66
2022/01/31 06:26:10;;;;;;;;;;;;;;;-17.44;84.34;100481.38;5073780;28;20333;-64
2022/01/31 06:28:36;;;;;;;;;;;;;;;-17.44;83.81;100480.50;5073258;28;19924;-65
2022/01/31 06:31:03;;;;;;;;;;;;;;;-17.59;84.67;100483.06;5073487;28;20386;-66
2022/01/31 06:33:29;;;;;;;;;;;;;;;-17.48;83.80;100478.63;5073418;28;19928;-65
2022/01/31 06:35:56;;;;;;;;;;;;;;;-17.54;84.26;100481.66;5073692;28;19932;-65
2022/01/31 06:38:25;;;;;;;;;;;;;;;-17.54;84.01;100480.78;5073184;28;19925;-65
2022/01/31 06:40:51;;;;;;;;;;;;;;;-17.73;82.86;100482.28;5073485;28;19978;-65
2022/01/31 06:43:18;;;;;;;;;;;;;;;-17.67;83.41;100491.69;5073377;28;20397;-66
2022/01/31 06:45:45;;;;;;;;;;;;;;;-17.83;84.05;100498.38;5073375;28;19924;-66
2022/01/31 06:48:12;;;;;;;;;;;;;;;-17.87;84.47;100494.03;5073252;28;19924;-65
2022/01/31 06:50:38;;;;;;;;;;;;;;;-17.89;84.49;100497.19;5072957;28;19951;-65
2022/01/31 06:53:06;;;;;;;;;;;;;;;-17.84;83.95;100500.78;5073333;28;19924;-65
2022/01/31 06:55:34;;;;;;;;;;;;;;;-18.02;84.47;100495.66;5073011;28;20363;-66
2022/01/31 06:58:01;;;;;;;;;;;;;;;-17.95;84.44;100495.25;5072977;28;19930;-65
2022/01/31 07:00:28;;;;;;;;;;;;;;;-17.96;84.03;100492.66;5073006;28;20383;-65
2022/01/31 07:02:55;;;;;;;;;;;;;;;-17.90;84.08;100490.50;5072980;28;20379;-65
2022/01/31 07:05:23;;;;;;;;;;;;;;;-17.95;84.17;100495.25;5073015;28;20287;-65
2022/01/31 07:07:49;;;;;;;;;;;;;;;-18.06;84.23;100491.28;5072958;28;19929;-66
2022/01/31 07:10:16;;;;;;;;;;;;;;;-18.11;84.07;100495.16;5072967;28;20268;-66
2022/01/31 07:12:51;;;;;;;;;;;;;;;-18.09;84.52;100501.06;5072727;28;20374;-65
2022/01/31 07:15:17;;;;;;;;;;;;;;;-18.12;84.63;100493.44;5072946;28;20020;-62
2022/01/31 07:17:44;;;;;;;;;;;;;;;-18.11;84.66;100498.47;5072821;28;19931;-66
2022/01/31 07:20:19;;;;;;;;;;;;;;;-18.23;83.82;100498.66;5073857;28;19925;-63
2022/01/31 07:22:52;;;;;;;;;;;;;;;-18.43;84.75;100501.66;5073872;28;19924;-66
2022/01/31 07:25:32;;;;;;;;;;;;;;;-18.68;85.47;100491.94;5073949;28;20418;-67
2022/01/31 07:28:00;;;;;;;;;;;;;;;-18.62;86.66;100488.97;5073210;28;19976;-64
2022/01/31 07:30:27;;;;;;;;;;;;;;;-18.62;84.71;100496.41;5072791;28;19924;-66
2022/01/31 07:32:53;;;;;;;;;;;;;;;-18.59;85.12;100497.47;5072048;28;19924;-66
2022/01/31 07:35:20;;;;;;;;;;;;;;;-18.72;84.87;100495.91;5072975;28;19925;-63
2022/01/31 07:37:47;;;;;;;;;;;;;;;-18.59;85.39;100499.09;5072547;28;20367;-65
2022/01/31 07:40:14;;;;;;;;;;;;;;;-18.63;85.38;100498.03;5072385;28;19987;-66
2022/01/31 07:42:40;;;;;;;;;;;;;;;-18.54;85.88;100497.72;5072573;28;19924;-65
2022/01/31 07:45:09;;;;;;;;;;;;;;;-18.55;85.64;100498.47;5072689;28;19924;-65
2022/01/31 07:47:35;;;;;;;;;;;;;;;-18.63;85.82;100489.75;5072598;28;19924;-65
2022/01/31 07:50:03;;;;;;;;;;;;;;;-18.52;84.67;100496.16;5072791;28;19925;-64
2022/01/31 07:52:30;;;;;;;;;;;;;;;-18.39;84.90;100487.78;5072713;28;19970;-64
2022/01/31 07:54:57;;;;;;;;;;;;;;;-18.40;85.33;100500.97;5072357;28;19932;-63
2022/01/31 07:57:25;;;;;;;;;;;;;;;-18.28;85.57;100494.22;5072280;28;19928;-65
2022/01/31 07:59:51;;;;;;;;;;;;;;;-18.17;84.16;100495.66;5072333;28;20371;-65
2022/01/31 08:02:20;;;;;;;;;;;;;;;-17.99;83.80;100494.97;5072352;28;20003;-62
2022/01/31 08:04:46;;;;;;;;;;;;;;;-18.18;84.36;100493.09;5072370;28;19947;-65
2022/01/31 08:07:13;;;;;;;;;;;;;;;-18.15;84.80;100494.13;5072604;28;19925;-64
2022/01/31 08:09:40;;;;;;;;;;;;;;;-17.91;83.52;100494.63;5071973;28;19924;-65
2022/01/31 08:12:07;;;;;;;;;;;;;;;-17.93;84.05;100495.31;5072064;28;19924;-65
2022/01/31 08:14:33;;;;;;;;;;;;;;;-18.05;83.84;100498.00;5072522;28;19924;-65
2022/01/31 08:17:00;;;;;;;;;;;;;;;-18.22;84.04;100494.56;5072356;28;20022;-65
2022/01/31 08:19:28;;;;;;;;;;;;;;;-17.92;83.86;100502.84;5072362;28;20386;-66
2022/01/31 08:21:55;;;;;;;;;;;;;;;-17.91;83.30;100509.53;5072094;28;19925;-66
2022/01/31 08:24:21;;;;;;;;;;;;;;;-18.10;82.63;100506.81;5071886;28;20394;-62
2022/01/31 08:26:48;;;;;;;;;;;;;;;-18.13;82.92;100517.44;5072064;28;20379;-66
2022/01/31 08:29:21;;;;;;;;;;;;;;;-18.22;82.91;100524.34;5072129;28;19924;-62
2022/01/31 08:31:52;;;;;;;;;;;;;;;-18.15;83.08;100526.41;5072022;28;19924;-64
2022/01/31 08:34:23;;;;;;;;;;;;;;;-18.24;82.27;100536.69;5072053;28;19932;-65
2022/01/31 08:36:51;;;;;;;;;;;;;;;-18.45;82.81;100540.44;5071741;28;19943;-66
2022/01/31 08:39:19;;;;;;;;;;;;;;;-18.49;82.83;100534.44;5071919;28;19931;-66
2022/01/31 08:41:47;;;;;;;;;;;;;;;-18.50;82.96;100534.34;5072153;28;19970;-65
2022/01/31 08:44:14;;;;;;;;;;;;;;;-18.59;83.01;100541.28;5073136;28;19932;-66
2022/01/31 08:46:42;;;;;;;;;;;;;;;-18.56;83.83;100542.31;5075728;28;19925;-62
2022/01/31 08:49:08;;;;;;;;;;;;;;;-18.64;83.70;100542.63;5075442;28;19924;-66
2022/01/31 08:51:35;;;;;;;;;;;;;;;-18.42;83.84;100543.09;5075531;28;19925;-66
2022/01/31 08:54:05;;;;;;;;;;;;;;;-18.58;83.60;100542.97;5075792;28;19936;-66
2022/01/31 08:56:35;;;;;;;;;;;;;;;-18.57;83.63;100552.13;5075444;28;19924;-65
2022/01/31 08:59:02;;;;;;;;;;;;;;;-18.20;83.51;100551.78;5075355;28;19970;-65
2022/01/31 09:01:29;;;;;;;;;;;;;;;-18.40;82.66;100546.53;5075309;28;19932;-62
2022/01/31 09:04:03;;;;;;;;;;;;;;;-18.42;83.25;100540.59;5075280;28;19931;-62
2022/01/31 09:06:31;;;;;;;;;;;;;;;-18.20;82.53;100546.81;5075169;28;20381;-60
2022/01/31 09:08:58;;;;;;;;;;;;;;;-18.06;82.59;100545.94;5075243;28;19928;-66
2022/01/31 09:11:27;;;;;;;;;;;;;;;-18.01;81.69;100545.41;5075052;28;20370;-66
2022/01/31 09:13:54;;;;;;;;;;;;;;;-17.91;80.96;100545.94;5075108;28;20273;-65
2022/01/31 09:16:22;;;;;;;;;;;;;;;-17.91;81.49;100548.44;5074815;28;19925;-66
2022/01/31 09:18:48;;;;;;;;;;;;;;;-17.79;80.73;100535.03;5075416;28;19950;-65
2022/01/31 09:21:15;;;;;;;;;;;;;;;-17.65;80.46;100539.88;5075057;28;20378;-66
2022/01/31 09:23:41;;;;;;;;;;;;;;;-17.61;80.99;100539.28;5074953;28;19925;-65
2022/01/31 09:26:09;;;;;;;;;;;;;;;-17.63;79.83;100540.81;5075011;28;19971;-64
2022/01/31 09:28:37;;;;;;;;;;;;;;;-17.59;80.38;100538.59;5075060;28;20027;-66
2022/01/31 09:31:04;;;;;;;;;;;;;;;-17.71;80.00;100530.47;5074833;28;19925;-65
2022/01/31 09:33:31;;;;;;;;;;;;;;;-17.68;80.50;100530.63;5074868;28;19931;-66
2022/01/31 09:35:57;;;;;;;;;;;;;;;-17.93;80.72;100530.94;5074714;28;19926;-60
2022/01/31 09:38:25;;;;;;;;;;;;;;;-17.98;80.79;100539.75;5074555;28;19924;-66
2022/01/31 09:40:52;;;;;;;;;;;;;;;-17.85;80.92;100532.25;5074551;28;19932;-65
2022/01/31 09:46:18;;;;;;;;;;;;;;;-17.75;80.50;100535.19;5074673;28;19970;-66
2022/01/31 09:48:45;;;;;;;;;;;;;;;-17.72;81.90;100521.31;5074247;28;19925;-66
2022/01/31 09:51:13;;;;;;;;;;;;;;;-17.77;80.87;100522.69;5074519;28;20007;-64
2022/01/31 09:53:40;;;;;;;;;;;;;;;-17.60;80.11;100526.06;5074420;28;19924;-64
2022/01/31 09:56:09;;;;;;;;;;;;;;;-17.62;79.60;100525.13;5073959;28;19938;-66
2022/01/31 09:58:35;;;;;;;;;;;;;;;-17.49;79.87;100522.53;5074530;28;19979;-65
2022/01/31 10:01:05;;;;;;;;;;;;;;;-17.45;81.26;100526.03;5074249;28;19928;-65
2022/01/31 10:03:31;;;;;;;;;;;;;;;-17.28;79.91;100539.38;5074153;28;19935;-64
2022/01/31 10:05:58;;;;;;;;;;;;;;;-17.46;80.44;100535.13;5073970;28;19925;-65
2022/01/31 10:08:28;;;;;;;;;;;;;;;-17.23;80.30;100528.03;5073973;28;20267;-65
2022/01/31 10:11:00;;;;;;;;;;;;;;;-17.29;79.99;100535.16;5074079;28;20027;-65
2022/01/31 10:16:26;;;;;;;;;;;;;;;-17.27;80.92;100534.47;5074258;28;19932;-65
2022/01/31 10:19:00;;;;;;;;;;;;;;;-17.35;81.38;100535.69;5074130;28;19928;-65
2022/01/31 10:21:27;;;;;;;;;;;;;;;-17.20;81.45;100531.53;5073668;28;19924;-65
2022/01/31 10:23:53;;;;;;;;;;;;;;;-17.14;80.69;100526.88;5073668;28;19931;-65
2022/01/31 10:26:30;;;;;;;;;;;;;;;-17.16;79.92;100525.97;5073700;28;19947;-66
2022/01/31 10:29:09;;;;;;;;;;;;;;;-17.19;81.50;100527.41;5073607;28;19931;-64
2022/01/31 10:31:37;;;;;;;;;;;;;;;-17.24;81.66;100526.31;5073562;28;19975;-65
2022/01/31 10:34:20;;;;;;;;;;;;;;;-16.87;81.48;100519.13;5073637;28;19928;-65
2022/01/31 10:36:46;;;;;;;;;;;;;;;-16.83;81.28;100517.66;5073459;28;19925;-64
2022/01/31 10:43:11;;;;;;;;;;;;;;;-16.88;81.14;100524.03;5073513;28;19929;-64
2022/01/31 10:45:21;;;;;;;;;;;;;;;-16.83;80.69;100520.13;5073394;28;19931;-65
2022/01/31 10:50:47;;;;;;;;;;;;;;;-16.72;82.04;100528.97;5073304;28;20038;-65
2022/01/31 10:53:14;;;;;;;;;;;;;;;-16.51;80.66;100530.06;5073304;28;20393;-66
2022/01/31 10:55:40;;;;;;;;;;;;;;;-16.44;81.24;100528.72;5073406;28;19931;-65
2022/01/31 10:58:08;;;;;;;;;;;;;;;-16.53;81.56;100530.75;5072938;28;20236;-65
2022/01/31 11:00:35;;;;;;;;;;;;;;;-16.57;80.79;100524.75;5072897;28;19944;-65
2022/01/31 11:03:23;;;;;;;;;;;;;;;-16.43;80.50;100517.13;5072839;28;19924;-66
2022/01/31 11:05:49;;;;;;;;;;;;;;;-16.45;81.66;100524.53;5072897;28;19924;-62
2022/01/31 11:08:16;;;;;;;;;;;;;;;-16.48;81.22;100532.69;5071996;28;19931;-64
2022/01/31 11:10:43;;;;;;;;;;;;;;;-16.49;81.46;100526.00;5073127;28;19985;-67
2022/01/31 11:13:10;;;;;;;;;;;;;;;-16.58;81.69;100523.06;5072826;28;19925;-65
2022/01/31 11:15:37;;;;;;;;;;;;;;;-16.65;81.96;100526.00;5072920;28;19958;-65
2022/01/31 11:18:06;;;;;;;;;;;;;;;-16.61;82.65;100527.03;5072856;28;19932;-66
2022/01/31 11:20:34;;;;;;;;;;;;;;;-16.48;82.30;100524.38;5073089;28;20409;-66
2022/01/31 11:23:02;;;;;;;;;;;;;;;-16.42;81.36;100523.81;5072663;28;19976;-65
2022/01/31 11:25:29;;;;;;;;;;;;;;;-16.58;82.27;100528.03;5072427;28;19925;-63
2022/01/31 11:27:59;;;;;;;;;;;;;;;-16.63;82.41;100526.94;5072481;28;19925;-62
2022/01/31 11:30:26;;;;;;;;;;;;;;;-16.60;83.24;100529.59;5072524;28;19924;-66
2022/01/31 11:32:53;;;;;;;;;;;;;;;-16.44;81.72;100528.72;5072619;28;19924;-65
2022/01/31 11:35:22;;;;;;;;;;;;;;;-16.38;82.75;100536.50;5072515;28;19924;-65
2022/01/31 11:37:48;;;;;;;;;;;;;;;-16.32;82.36;100533.44;5072533;28;19931;-64
2022/01/31 11:40:16;;;;;;;;;;;;;;;-16.42;81.77;100532.13;5072596;28;19932;-64
2022/01/31 11:42:43;;;;;;;;;;;;;;;-16.56;83.33;100535.59;5073035;28;19929;-66
2022/01/31 11:45:11;;;;;;;;;;;;;;;-16.73;82.79;100530.59;5072420;28;19924;-66
2022/01/31 11:47:38;;;;;;;;;;;;;;;-16.39;82.57;100526.44;5072364;28;19932;-65
2022/01/31 11:50:06;;;;;;;;;;;;;;;-16.12;82.22;100526.94;5072274;28;19928;-65
2022/01/31 11:52:42;;;;;;;;;;;;;;;-16.04;81.08;100524.03;5072351;28;19931;-66
2022/01/31 11:55:12;;;;;;;;;;;;;;;-16.32;82.30;100531.81;5072490;28;19932;-66
2022/01/31 11:57:38;;;;;;;;;;;;;;;-16.38;81.67;100524.03;5072132;28;19932;-66
2022/01/31 12:00:07;;;;;;;;;;;;;;;-16.39;83.16;100533.94;5072072;28;19924;-62
2022/01/31 12:02:40;;;;;;;;;;;;;;;-16.20;82.76;100535.69;5072250;28;19924;-66
2022/01/31 12:05:08;;;;;;;;;;;;;;;-16.31;82.97;100541.00;5072330;28;19931;-64
2022/01/31 12:07:39;;;;;;;;;;;;;;;-16.16;82.54;100523.44;5072263;28;19935;-65
2022/01/31 12:10:06;;;;;;;;;;;;;;;-16.22;82.17;100529.78;5072148;28;19931;-66
2022/01/31 12:12:43;;;;;;;;;;;;;;;-16.01;81.25;100528.31;5071880;28;19924;-65
2022/01/31 12:15:44;;;;;;;;;;;;;;;-16.11;82.19;100536.97;5072156;28;20406;-66
2022/01/31 12:24:28;;;;;;;;;;;;;;;-15.97;82.03;100551.78;5074071;28;20456;-63
2022/01/31 12:26:56;;;;;;;;;;;;;;;-15.98;81.26;100545.91;5075372;28;20283;-65
2022/01/31 12:29:23;;;;;;;;;;;;;;;-15.91;81.57;100534.59;5075848;28;20004;-65
2022/01/31 12:31:52;;;;;;;;;;;;;;;-15.48;80.81;100541.56;5076016;28;19929;-63
2022/01/31 12:34:48;;;;;;;;;;;;;;;-15.14;79.73;100552.28;5076041;28;19931;-66
2022/01/31 12:37:16;;;;;;;;;;;;;;;-14.07;76.32;100561.00;5073482;28;19951;-63
2022/01/31 12:39:50;;;;;;;;;;;;;;;-13.31;73.04;100563.97;5075097;28;19924;-65
2022/01/31 12:42:54;;;;;;;;;;;;;;;-12.97;70.92;100561.91;5075795;28;19929;-65
2022/01/31 12:45:23;;;;;;;;;;;;;;;-13.00;70.40;100560.91;5075519;28;19925;-65
2022/01/31 12:48:08;;;;;;;;;;;;;;;-13.53;71.68;100562.31;5075707;28;20310;-66
2022/01/31 12:50:35;;;;;;;;;;;;;;;-14.38;74.03;100573.00;5075344;28;19936;-66